Terminal Aerodrome Forecast
Issued by NWS Mt. Holly, NJ

Home | Current Version | Previous Version | Text Only | Print | Product List | Glossary On
Versions: 1 2 3 4 5 6 7 8 9 10 11 12 13 14 15 16
000
FTUS41 KPHI 191724
TAFTTN
TAF
KTTN 191724Z 1918/2018 14012G18KT P6SM OVC250
     FM200200 11015G25KT P6SM OVC050
     FM200500 10018G28KT 6SM -SHRA OVC020
     FM200700 10018G28KT 3SM -RA BR OVC009 WS020/14055KT
     FM201500 14012KT 5SM -SHRA OVC006=

USA.gov is the U.S. government's official web portal to all federal, state and local government web resources and services.